createdAt,value
2018-11-05T00:01:15.172Z,29.17
2018-11-05T00:03:42.311Z,26.57
2018-11-05T00:06:09.491Z,26.50
2018-11-05T00:08:36.667Z,24.07
2018-11-05T00:11:03.843Z,28.17
2018-11-05T00:13:30.991Z,29.70
2018-11-05T00:15:58.195Z,26.40
2018-11-05T00:18:25.364Z,24.87
2018-11-05T00:20:52.545Z,27.10
2018-11-05T00:23:19.693Z,27.93
2018-11-05T00:25:46.870Z,27.30
2018-11-05T00:28:14.010Z,23.47
2018-11-05T00:30:41.201Z,25.93
2018-11-05T00:33:08.406Z,26.93
2018-11-05T00:35:35.609Z,26.70
2018-11-05T00:38:02.752Z,21.10
2018-11-05T00:40:29.957Z,28.33
2018-11-05T00:42:57.132Z,25.80
2018-11-05T00:45:24.324Z,28.90
2018-11-05T00:47:51.518Z,26.70
2018-11-05T00:50:18.706Z,27.33
2018-11-05T00:52:45.859Z,29.03
2018-11-05T00:55:13.414Z,26.90
2018-11-05T00:57:40.628Z,26.80
2018-11-05T01:00:08.924Z,24.60
2018-11-05T01:02:36.111Z,29.30
2018-11-05T01:05:03.271Z,32.23
2018-11-05T01:07:30.454Z,29.60
2018-11-05T01:09:57.616Z,28.50
2018-11-05T01:12:24.794Z,26.97
2018-11-05T01:14:51.980Z,29.60
2018-11-05T01:17:19.166Z,23.20
2018-11-05T01:19:46.351Z,27.73
2018-11-05T01:22:13.513Z,33.07
2018-11-05T01:24:40.673Z,28.60
2018-11-05T01:27:07.854Z,27.83
2018-11-05T01:29:35.046Z,27.13
2018-11-05T01:32:02.317Z,28.17
2018-11-05T01:34:29.494Z,25.80
2018-11-05T01:36:56.688Z,29.27
2018-11-05T01:39:23.862Z,29.90
2018-11-05T01:41:51.055Z,27.87
2018-11-05T01:44:18.210Z,29.77
2018-11-05T01:46:45.420Z,31.30
2018-11-05T01:49:12.574Z,29.03
2018-11-05T01:51:39.752Z,30.47
2018-11-05T01:54:06.939Z,29.13
2018-11-05T01:56:34.114Z,28.10
2018-11-05T01:59:01.544Z,27.17
2018-11-05T02:01:28.703Z,26.10
2018-11-05T02:03:55.885Z,30.63
2018-11-05T02:06:23.043Z,31.13
2018-11-05T02:08:50.232Z,30.93
2018-11-05T02:11:17.392Z,32.03
2018-11-05T02:13:44.576Z,30.93
2018-11-05T02:16:11.834Z,27.53
2018-11-05T02:18:38.890Z,30.67
2018-11-05T02:21:06.119Z,30.80
2018-11-05T02:23:33.276Z,32.43
2018-11-05T02:26:00.474Z,28.50
2018-11-05T02:28:27.668Z,24.57
2018-11-05T02:30:54.827Z,29.33
2018-11-05T02:33:21.999Z,27.70
2018-11-05T02:35:49.202Z,26.30
2018-11-05T02:38:16.411Z,28.80
2018-11-05T02:40:43.838Z,29.60
2018-11-05T02:43:11.007Z,28.80
2018-11-05T02:45:38.204Z,29.90
2018-11-05T02:48:05.497Z,30.63
2018-11-05T02:50:32.692Z,26.10
2018-11-05T02:52:59.842Z,26.40
2018-11-05T02:55:27.038Z,28.17
2018-11-05T02:57:54.232Z,33.97
2018-11-05T03:00:21.424Z,29.70
2018-11-05T03:02:48.608Z,30.67
2018-11-05T03:05:17.072Z,29.47
2018-11-05T03:07:44.898Z,29.10
2018-11-05T03:10:12.443Z,27.30
2018-11-05T03:12:40.249Z,32.43
2018-11-05T03:15:07.973Z,34.23
2018-11-05T03:17:35.254Z,30.40
2018-11-05T03:20:02.486Z,28.97
2018-11-05T03:22:29.714Z,33.50
2018-11-05T03:24:56.905Z,30.57
2018-11-05T03:27:24.078Z,35.33
2018-11-05T03:29:51.263Z,31.30
2018-11-05T03:32:18.450Z,34.53
2018-11-05T03:34:45.638Z,29.47
2018-11-05T03:37:12.817Z,31.13
2018-11-05T03:39:40.238Z,27.67
2018-11-05T03:42:07.494Z,30.23
2018-11-05T03:44:34.666Z,30.73
2018-11-05T03:47:01.842Z,37.13
2018-11-05T03:49:29.039Z,35.80
2018-11-05T03:51:56.197Z,33.87
2018-11-05T03:54:23.399Z,31.23
2018-11-05T03:56:50.575Z,33.37
2018-11-05T03:59:17.747Z,36.30
2018-11-05T04:01:44.907Z,34.27
2018-11-05T04:04:12.095Z,30.03
2018-11-05T04:06:39.351Z,32.60
2018-11-05T04:09:07.592Z,31.67
2018-11-05T04:14:08.603Z,32.00
2018-11-05T04:16:35.794Z,29.73
2018-11-05T04:19:03.011Z,35.07
2018-11-05T04:21:45.298Z,34.03
2018-11-05T04:24:13.611Z,35.80
2018-11-05T04:26:42.101Z,30.23
2018-11-05T04:29:09.530Z,37.63
2018-11-05T04:31:37.009Z,36.20
2018-11-05T04:34:04.246Z,33.17
2018-11-05T04:36:31.450Z,28.97
2018-11-05T04:38:58.638Z,34.87
2018-11-05T04:41:25.842Z,35.00
2018-11-05T04:43:53.013Z,34.10
2018-11-05T04:46:20.172Z,37.73
2018-11-05T04:48:47.358Z,37.73
2018-11-05T04:51:14.550Z,36.60
2018-11-05T04:53:41.871Z,33.53
2018-11-05T04:56:09.077Z,39.00
2018-11-05T04:58:36.508Z,33.87
2018-11-05T05:01:03.701Z,33.73
2018-11-05T05:03:30.965Z,34.87
2018-11-05T05:05:58.104Z,34.30
2018-11-05T05:08:25.315Z,32.70
2018-11-05T05:10:52.511Z,33.60
2018-11-05T05:13:19.694Z,38.33
2018-11-05T05:15:46.886Z,35.10
2018-11-05T05:18:14.090Z,38.33
2018-11-05T05:20:41.293Z,44.07
2018-11-05T05:23:08.586Z,33.83
2018-11-05T05:25:35.685Z,36.37
2018-11-05T05:28:02.882Z,34.47
2018-11-05T05:30:30.071Z,34.37
2018-11-05T05:32:57.367Z,33.80
2018-11-05T05:35:24.503Z,39.27
2018-11-05T05:37:51.699Z,36.60
2018-11-05T05:40:18.914Z,35.43
2018-11-05T05:42:46.210Z,35.00
2018-11-05T05:45:13.583Z,32.70
2018-11-05T05:47:41.335Z,33.03
2018-11-05T05:50:10.048Z,35.70
2018-11-05T05:52:37.251Z,32.70
2018-11-05T05:55:04.986Z,32.30
2018-11-05T05:57:32.199Z,34.17
2018-11-05T05:59:59.421Z,38.13
2018-11-05T06:02:26.583Z,41.20
2018-11-05T06:04:53.755Z,41.87
2018-11-05T06:07:20.961Z,35.00
2018-11-05T06:09:48.147Z,41.10
2018-11-05T06:12:15.386Z,46.80
2018-11-05T06:14:42.564Z,43.20
2018-11-05T06:17:09.762Z,43.13
2018-11-05T06:19:37.047Z,38.93
2018-11-05T06:22:04.602Z,36.87
2018-11-05T06:24:31.797Z,35.00
2018-11-05T06:26:58.962Z,40.63
2018-11-05T06:29:26.164Z,39.13
2018-11-05T06:31:53.314Z,39.50
2018-11-05T06:34:20.518Z,39.97
2018-11-05T06:36:47.721Z,39.23
2018-11-05T06:39:14.931Z,41.87
2018-11-05T06:41:42.567Z,33.43
2018-11-05T06:44:09.798Z,38.70
2018-11-05T06:46:36.921Z,32.17
2018-11-05T06:49:04.188Z,37.30
2018-11-05T06:51:31.822Z,34.60
2018-11-05T06:53:59.051Z,35.70
2018-11-05T06:56:26.214Z,44.93
2018-11-05T06:58:53.415Z,37.77
2018-11-05T07:01:20.603Z,44.40
2018-11-05T07:03:47.771Z,43.20
2018-11-05T07:06:14.964Z,38.60
2018-11-05T07:08:42.136Z,39.43
2018-11-05T07:11:09.380Z,40.80
2018-11-05T07:13:36.539Z,38.70
2018-11-05T07:16:03.764Z,42.40
2018-11-05T07:18:31.080Z,45.63
2018-11-05T07:20:58.143Z,37.80
2018-11-05T07:23:25.340Z,38.53
2018-11-05T07:25:52.539Z,42.00
2018-11-05T07:28:19.731Z,43.00
2018-11-05T07:30:47.776Z,40.60
2018-11-05T07:33:15.007Z,41.33
2018-11-05T07:35:42.155Z,44.10
2018-11-05T07:38:09.327Z,42.70
2018-11-05T07:40:36.530Z,35.73
2018-11-05T07:43:03.973Z,38.43
2018-11-05T07:45:31.181Z,47.10
2018-11-05T07:47:58.532Z,42.03
2018-11-05T07:50:25.785Z,37.87
2018-11-05T07:52:53.334Z,37.60
2018-11-05T07:55:20.639Z,36.60
2018-11-05T07:57:48.739Z,37.20
2018-11-05T08:00:21.452Z,37.23
2018-11-05T08:02:49.873Z,36.97
2018-11-05T08:05:18.067Z,33.00
2018-11-05T08:07:45.555Z,37.97
2018-11-05T08:10:13.315Z,39.33
2018-11-05T08:12:41.098Z,41.33
2018-11-05T08:15:09.663Z,44.37
2018-11-05T08:17:36.855Z,36.97
2018-11-05T08:20:04.076Z,40.63
2018-11-05T08:22:31.270Z,40.03
2018-11-05T08:24:58.444Z,41.60
2018-11-05T08:27:25.638Z,39.03
2018-11-05T08:29:52.855Z,41.73
2018-11-05T08:32:20.042Z,38.87
2018-11-05T08:34:47.223Z,39.77
2018-11-05T08:37:14.706Z,40.23
2018-11-05T08:39:42.052Z,40.90
2018-11-05T08:42:09.215Z,41.20
2018-11-05T08:44:36.394Z,40.97
2018-11-05T08:47:03.577Z,38.93
2018-11-05T08:49:30.776Z,39.87
2018-11-05T08:51:57.970Z,38.37
2018-11-05T08:54:25.139Z,44.03
2018-11-05T08:56:52.720Z,37.90
2018-11-05T08:59:19.890Z,39.13
2018-11-05T09:01:47.106Z,41.47
2018-11-05T09:04:14.277Z,42.27
2018-11-05T09:06:41.480Z,42.93
2018-11-05T09:09:08.667Z,41.70
2018-11-05T09:11:36.148Z,36.93
2018-11-05T09:14:03.070Z,42.30
2018-11-05T09:16:30.276Z,41.67
2018-11-05T09:18:57.474Z,39.33
2018-11-05T09:21:24.660Z,42.30
2018-11-05T09:23:51.862Z,40.70
2018-11-05T09:26:19.049Z,39.40
2018-11-05T09:28:46.227Z,42.20
2018-11-05T09:31:13.422Z,40.70
2018-11-05T09:33:40.590Z,40.23
2018-11-05T09:36:07.965Z,44.20
2018-11-05T09:38:35.199Z,45.40
2018-11-05T09:41:03.330Z,46.00
2018-11-05T09:43:30.504Z,41.03
2018-11-05T09:45:57.816Z,40.23
2018-11-05T09:48:25.001Z,44.10
2018-11-05T09:50:52.207Z,45.27
2018-11-05T09:53:19.385Z,38.73
2018-11-05T09:55:46.591Z,43.13
2018-11-05T09:58:13.764Z,53.30
2018-11-05T10:00:40.958Z,38.10
2018-11-05T10:03:14.586Z,43.00
2018-11-05T10:05:41.565Z,37.30
2018-11-05T10:08:08.654Z,39.17
2018-11-05T10:10:35.848Z,37.87
2018-11-05T10:13:03.051Z,47.47
2018-11-05T10:15:30.230Z,41.10
2018-11-05T10:17:57.434Z,46.30
2018-11-05T10:20:25.140Z,40.43
2018-11-05T10:22:52.346Z,39.90
2018-11-05T10:25:19.708Z,43.53
2018-11-05T10:27:47.602Z,41.13
2018-11-05T10:30:16.614Z,41.63
2018-11-05T10:32:44.352Z,46.10
2018-11-05T10:35:12.117Z,39.70
2018-11-05T10:37:39.488Z,47.10
2018-11-05T10:40:08.772Z,42.67
2018-11-05T10:42:35.951Z,48.67
2018-11-05T10:45:03.179Z,49.37
2018-11-05T10:47:30.676Z,46.70
2018-11-05T10:49:57.866Z,42.20
2018-11-05T10:52:25.108Z,40.80
2018-11-05T10:54:52.243Z,39.43
2018-11-05T10:57:19.407Z,40.77
2018-11-05T10:59:46.630Z,45.00
2018-11-05T11:02:19.399Z,43.00
2018-11-05T11:04:46.602Z,43.17
2018-11-05T11:07:13.801Z,38.20
2018-11-05T11:09:41.088Z,43.33
2018-11-05T11:12:08.242Z,37.60
2018-11-05T11:14:35.447Z,37.43
2018-11-05T11:17:03.067Z,41.40
2018-11-05T11:19:30.271Z,42.53
2018-11-05T11:21:57.724Z,51.63
2018-11-05T11:24:24.920Z,40.77
2018-11-05T11:26:52.087Z,46.00
2018-11-05T11:29:19.446Z,38.90
2018-11-05T11:31:46.471Z,36.50
2018-11-05T11:34:13.690Z,40.03
2018-11-05T11:36:41.028Z,43.13
2018-11-05T11:39:09.293Z,35.57
2018-11-05T11:41:36.499Z,38.47
2018-11-05T11:44:03.728Z,41.70
2018-11-05T11:46:30.924Z,41.93
2018-11-05T11:48:58.093Z,39.27
2018-11-05T11:51:25.306Z,39.13
2018-11-05T11:53:52.495Z,38.53
2018-11-05T11:56:19.690Z,40.03
2018-11-05T11:58:46.850Z,39.90
2018-11-05T12:01:14.067Z,44.63
2018-11-05T12:03:41.227Z,45.57
2018-11-05T12:06:09.467Z,38.83
2018-11-05T12:08:36.687Z,43.93
2018-11-05T12:11:03.984Z,42.67
2018-11-05T12:13:31.179Z,44.93
2018-11-05T12:15:58.388Z,39.17
2018-11-05T12:18:25.589Z,38.30
2018-11-05T12:20:52.757Z,39.43
2018-11-05T12:23:19.973Z,42.00
2018-11-05T12:25:47.175Z,36.70
2018-11-05T12:28:14.360Z,43.73
2018-11-05T12:30:41.551Z,37.53
2018-11-05T12:33:08.755Z,39.90
2018-11-05T12:35:35.924Z,38.97
2018-11-05T12:38:03.146Z,38.80
2018-11-05T12:40:30.391Z,41.63
2018-11-05T12:45:31.443Z,40.70
2018-11-05T12:47:58.634Z,39.30
2018-11-05T12:50:25.909Z,37.80
2018-11-05T12:52:54.394Z,39.57
2018-11-05T12:55:21.587Z,39.40
2018-11-05T12:57:48.972Z,43.67
2018-11-05T13:00:17.995Z,40.33
2018-11-05T13:02:49.554Z,40.80
2018-11-05T13:05:16.750Z,45.00
2018-11-05T13:07:43.984Z,37.80
2018-11-05T13:10:11.914Z,45.10
2018-11-05T13:12:39.263Z,44.07
2018-11-05T13:15:07.137Z,41.10
2018-11-05T13:17:34.470Z,41.30
2018-11-05T13:20:01.679Z,38.20
2018-11-05T13:22:29.029Z,45.67
2018-11-05T13:24:56.095Z,46.30
2018-11-05T13:27:23.276Z,58.43
2018-11-05T13:29:50.488Z,64.30
2018-11-05T13:32:17.740Z,39.67
2018-11-05T13:34:44.968Z,42.53
2018-11-05T13:37:12.228Z,42.63
2018-11-05T13:39:39.530Z,41.87
2018-11-05T13:42:06.742Z,46.27
2018-11-05T13:44:33.968Z,48.93
2018-11-05T13:47:02.295Z,40.13
2018-11-05T13:49:29.208Z,41.70
2018-11-05T13:51:56.192Z,36.93
2018-11-05T13:54:23.493Z,36.37
2018-11-05T13:56:50.604Z,39.70
2018-11-05T13:59:17.859Z,38.70
2018-11-05T14:01:45.087Z,36.70
2018-11-05T14:04:12.297Z,38.83
2018-11-05T14:06:39.487Z,34.93
2018-11-05T14:09:07.310Z,39.40
2018-11-05T14:11:34.518Z,37.83
2018-11-05T14:14:02.182Z,39.57
2018-11-05T14:16:29.953Z,40.50
2018-11-05T14:18:57.118Z,39.43
2018-11-05T14:21:24.323Z,42.73
2018-11-05T14:23:51.496Z,37.50
2018-11-05T14:26:18.756Z,39.40
2018-11-05T14:28:46.250Z,40.03
2018-11-05T14:31:13.080Z,39.23
2018-11-05T14:33:40.323Z,39.70
2018-11-05T14:36:07.527Z,38.50
2018-11-05T14:38:34.848Z,41.20
2018-11-05T14:41:02.546Z,34.90
2018-11-05T14:43:29.772Z,38.10
2018-11-05T14:45:56.902Z,39.47
2018-11-05T14:48:24.088Z,38.77
2018-11-05T14:50:51.398Z,38.40
2018-11-05T14:53:18.480Z,37.67
2018-11-05T14:55:45.703Z,40.90
2018-11-05T14:58:12.878Z,34.73
2018-11-05T15:00:40.278Z,34.73
2018-11-05T15:03:07.611Z,39.23
2018-11-05T15:05:34.698Z,37.30
2018-11-05T15:08:01.896Z,37.00
2018-11-05T15:10:29.085Z,35.97
2018-11-05T15:12:56.279Z,38.10
2018-11-05T15:15:23.770Z,37.77
2018-11-05T15:17:50.930Z,41.60
2018-11-05T15:20:19.474Z,37.33
2018-11-05T15:22:46.678Z,43.07
2018-11-05T15:25:14.329Z,39.63
2018-11-05T15:27:41.833Z,39.63
2018-11-05T15:30:10.411Z,41.50
2018-11-05T15:32:37.839Z,38.97
2018-11-05T15:35:05.041Z,44.63
2018-11-05T15:37:32.239Z,35.07
2018-11-05T15:39:59.435Z,41.67
2018-11-05T15:42:26.597Z,37.40
2018-11-05T15:44:53.813Z,37.90
2018-11-05T15:47:21.010Z,36.33
2018-11-05T15:49:48.183Z,37.90
2018-11-05T15:52:15.576Z,38.33
2018-11-05T15:54:42.571Z,37.67
2018-11-05T15:57:09.939Z,38.13
2018-11-05T15:59:37.168Z,39.47
2018-11-05T16:02:09.564Z,38.83
2018-11-05T16:04:36.780Z,45.03
2018-11-05T16:07:03.974Z,38.60
2018-11-05T16:09:31.230Z,40.27
2018-11-05T16:11:58.923Z,31.20
2018-11-05T16:14:26.127Z,39.60
2018-11-05T16:16:53.296Z,36.40
2018-11-05T16:19:20.499Z,33.33
2018-11-05T16:21:47.684Z,31.00
2018-11-05T16:24:14.915Z,36.10
2018-11-05T16:26:42.075Z,41.37
2018-11-05T16:29:09.269Z,37.53
2018-11-05T16:31:36.443Z,33.20
2018-11-05T16:34:03.647Z,34.03
2018-11-05T16:36:30.823Z,37.40
2018-11-05T16:38:58.014Z,30.30
2018-11-05T16:41:25.335Z,35.10
2018-11-05T16:43:52.542Z,34.10
2018-11-05T16:46:19.748Z,33.13
2018-11-05T16:48:46.968Z,36.97
2018-11-05T16:51:14.155Z,36.03
2018-11-05T16:53:41.394Z,37.40
2018-11-05T16:56:08.566Z,44.57
2018-11-05T16:58:35.776Z,37.80
2018-11-05T17:01:03.115Z,36.17
2018-11-05T17:03:30.163Z,34.77
2018-11-05T17:05:57.362Z,41.10
2018-11-05T17:08:24.540Z,37.87
2018-11-05T17:10:51.730Z,38.37
2018-11-05T17:13:18.913Z,34.77
2018-11-05T17:15:46.116Z,36.63
2018-11-05T17:18:13.275Z,33.80
2018-11-05T17:20:40.455Z,34.73
2018-11-05T17:23:07.656Z,50.37
2018-11-05T17:25:34.826Z,43.57
2018-11-05T17:28:02.031Z,41.73
2018-11-05T17:30:29.315Z,40.10
2018-11-05T17:32:56.485Z,38.30
2018-11-05T17:35:23.684Z,34.60
2018-11-05T17:37:50.855Z,37.17
2018-11-05T17:40:19.639Z,43.80
2018-11-05T17:42:46.740Z,44.77
2018-11-05T17:45:15.340Z,44.93
2018-11-05T17:47:42.721Z,32.97
2018-11-05T17:50:11.690Z,45.40
2018-11-05T17:52:39.173Z,36.40
2018-11-05T17:55:06.843Z,47.50
2018-11-05T17:57:34.040Z,38.57
2018-11-05T18:00:01.240Z,33.90
2018-11-05T18:02:28.432Z,44.47
2018-11-05T18:04:56.343Z,37.23
2018-11-05T18:07:24.102Z,40.10
2018-11-05T18:09:51.575Z,38.80
2018-11-05T18:12:18.763Z,37.00
2018-11-05T18:14:45.959Z,44.03
2018-11-05T18:17:13.166Z,47.13
2018-11-05T18:19:40.307Z,44.77
2018-11-05T18:22:07.531Z,36.27
2018-11-05T18:24:34.743Z,34.07
2018-11-05T18:27:01.980Z,82.57
2018-11-05T18:29:29.287Z,56.13
2018-11-05T18:31:56.473Z,52.83
2018-11-05T18:34:23.668Z,46.90
2018-11-05T18:36:50.859Z,44.03
2018-11-05T18:39:18.065Z,46.57
2018-11-05T18:41:45.267Z,52.40
2018-11-05T18:44:12.460Z,46.60
2018-11-05T18:46:39.652Z,47.60
2018-11-05T18:49:06.870Z,36.93
2018-11-05T18:51:34.096Z,41.93
2018-11-05T18:54:01.270Z,41.27
2018-11-05T18:56:28.490Z,44.73
2018-11-05T18:58:55.647Z,46.20
2018-11-05T19:01:22.810Z,44.10
2018-11-05T19:03:50.106Z,43.40
2018-11-05T19:06:17.209Z,42.73
2018-11-05T19:08:44.382Z,39.17
2018-11-05T19:11:12.484Z,38.33
2018-11-05T19:13:39.847Z,38.27
2018-11-05T19:16:07.232Z,36.47
2018-11-05T19:18:34.286Z,51.10
2018-11-05T19:21:01.705Z,37.90
2018-11-05T19:23:29.027Z,41.63
2018-11-05T19:25:56.090Z,37.20
2018-11-05T19:28:23.347Z,38.00
2018-11-05T19:30:50.474Z,33.60
2018-11-05T19:33:17.726Z,38.53
2018-11-05T19:35:44.854Z,39.33
2018-11-05T19:38:12.031Z,39.03
2018-11-05T19:40:39.199Z,45.67
2018-11-05T19:43:06.490Z,42.43
2018-11-05T19:45:33.580Z,44.70
2018-11-05T19:48:01.247Z,45.30
2018-11-05T19:50:28.552Z,52.40
2018-11-05T19:52:55.751Z,50.03
2018-11-05T19:55:22.952Z,50.13
2018-11-05T19:57:50.936Z,62.37
2018-11-05T20:00:23.050Z,52.70
2018-11-05T20:02:50.582Z,55.27
2018-11-05T20:05:18.157Z,61.70
2018-11-05T20:07:45.778Z,83.93
2018-11-05T20:10:13.311Z,90.53
2018-11-05T20:12:41.002Z,69.33
2018-11-05T20:15:08.500Z,67.77
2018-11-05T20:17:36.122Z,53.50
2018-11-05T20:20:04.396Z,75.00
2018-11-05T20:22:31.670Z,69.47
2018-11-05T20:24:58.752Z,64.53
2018-11-05T20:27:25.916Z,53.93
2018-11-05T20:29:53.102Z,52.13
2018-11-05T20:32:20.654Z,43.50
2018-11-05T20:34:47.490Z,46.70
2018-11-05T20:37:14.805Z,47.23
2018-11-05T20:39:42.073Z,46.47
2018-11-05T20:42:09.451Z,44.20
2018-11-05T20:44:36.631Z,47.93
2018-11-05T20:47:03.842Z,54.70
2018-11-05T20:49:31.056Z,62.03
2018-11-05T20:51:58.319Z,44.17
2018-11-05T20:54:25.595Z,42.60
2018-11-05T20:56:52.810Z,49.53
2018-11-05T20:59:19.979Z,51.43
2018-11-05T21:01:47.152Z,52.70
2018-11-05T21:04:14.490Z,49.60
2018-11-05T21:06:41.697Z,48.87
2018-11-05T21:09:09.798Z,45.50
2018-11-05T21:11:37.007Z,44.87
2018-11-05T21:14:04.207Z,78.13
2018-11-05T21:16:31.364Z,41.50
2018-11-05T21:18:58.550Z,43.17
2018-11-05T21:21:25.869Z,44.47
2018-11-05T21:23:52.999Z,42.27
2018-11-05T21:26:20.174Z,46.23
2018-11-05T21:28:47.334Z,41.13
2018-11-05T21:31:14.522Z,39.33
2018-11-05T21:33:41.696Z,46.90
2018-11-05T21:36:08.850Z,37.27
2018-11-05T21:38:36.044Z,42.00
2018-11-05T21:41:03.243Z,44.10
2018-11-05T21:43:30.418Z,36.43
2018-11-05T21:45:57.587Z,39.83
2018-11-05T21:48:24.782Z,43.10
2018-11-05T21:50:51.962Z,46.20
2018-11-05T21:53:19.152Z,42.93
2018-11-05T21:55:46.341Z,46.80
2018-11-05T21:58:13.502Z,43.20
2018-11-05T22:00:40.682Z,41.03
2018-11-05T22:03:13.272Z,92.07
2018-11-05T22:05:40.430Z,45.13
2018-11-05T22:08:07.634Z,44.10
2018-11-05T22:10:34.842Z,61.90
2018-11-05T22:13:02.550Z,39.43
2018-11-05T22:15:45.132Z,39.40
2018-11-05T22:18:12.521Z,39.43
2018-11-05T22:20:39.699Z,47.67
2018-11-05T22:23:06.907Z,49.80
2018-11-05T22:25:34.109Z,51.27
2018-11-05T22:28:01.270Z,46.20
2018-11-05T22:30:28.455Z,58.30
2018-11-05T22:32:55.661Z,84.60
2018-11-05T22:35:23.311Z,50.17
2018-11-05T22:37:50.478Z,58.47
2018-11-05T22:40:17.890Z,46.87
2018-11-05T22:42:45.132Z,51.93
2018-11-05T22:45:13.643Z,55.50
2018-11-05T22:47:41.180Z,53.57
2018-11-05T22:50:08.685Z,56.87
2018-11-05T22:52:35.899Z,58.17
2018-11-05T22:55:03.114Z,65.27
2018-11-05T22:57:30.290Z,46.60
2018-11-05T22:59:57.538Z,50.30
2018-11-05T23:02:24.662Z,47.13
2018-11-05T23:04:51.839Z,61.27
2018-11-05T23:07:19.014Z,47.73
2018-11-05T23:09:46.228Z,54.67
2018-11-05T23:12:13.402Z,48.93
2018-11-05T23:14:40.567Z,47.53
2018-11-05T23:17:07.785Z,53.13
2018-11-05T23:19:34.967Z,48.77
2018-11-05T23:22:02.518Z,53.60
2018-11-05T23:24:29.767Z,55.93
2018-11-05T23:26:56.954Z,47.50
2018-11-05T23:29:24.150Z,49.17
2018-11-05T23:31:51.314Z,44.30
2018-11-05T23:34:18.503Z,59.43
2018-11-05T23:36:45.692Z,82.67
2018-11-05T23:39:12.882Z,56.77
2018-11-05T23:41:40.059Z,91.40
2018-11-05T23:44:07.259Z,79.13
2018-11-05T23:46:34.458Z,50.40
2018-11-05T23:49:02.231Z,63.90
2018-11-05T23:51:29.451Z,51.27
2018-11-05T23:53:56.619Z,52.87
2018-11-05T23:56:23.810Z,111.50
2018-11-05T23:58:51.015Z,56.47
